Time;durP1;ratioP1;P1;durP2;ratioP2;P2;SDS_P1;SDS_P2;PMS_P1;PMS_P2;Temp;Humidity;BMP_temperature;BMP_pressure;BME280_temperature;BME280_humidity;BME280_pressure;Samples;Min_cycle;Max_cycle;Signal;HPM_P1;HPM_P2
2022/10/22 00:00:29;;;;;;;16.17;6.30;;;12.50;99.90;;;;;;5138355;27;20038;-78
2022/10/22 00:02:55;;;;;;;15.82;6.50;;;12.50;99.90;;;;;;5157420;27;20573;-78
2022/10/22 00:05:20;;;;;;;15.82;5.95;;;12.40;99.90;;;;;;5121009;27;20417;-78
2022/10/22 00:07:46;;;;;;;14.65;6.80;;;12.40;99.90;;;;;;5121167;27;20125;-80
2022/10/22 00:10:12;;;;;;;16.13;7.10;;;12.40;99.90;;;;;;5137912;27;20110;-79
2022/10/22 00:12:38;;;;;;;18.95;7.65;;;12.40;99.90;;;;;;5138490;27;20043;-79
2022/10/22 00:15:05;;;;;;;19.20;7.73;;;12.40;99.90;;;;;;5138033;27;20046;-78
2022/10/22 00:17:31;;;;;;;20.13;8.10;;;12.40;99.90;;;;;;5121308;27;20466;-79
2022/10/22 00:19:57;;;;;;;17.55;7.97;;;12.40;99.90;;;;;;5156486;27;20171;-78
2022/10/22 00:22:22;;;;;;;19.27;8.23;;;12.40;99.90;;;;;;5138327;27;20340;-78
2022/10/22 00:24:48;;;;;;;19.25;7.85;;;12.30;99.90;;;;;;5137665;27;20103;-79
2022/10/22 00:27:14;;;;;;;16.08;7.10;;;12.30;99.90;;;;;;5137945;27;20042;-78
2022/10/22 00:29:40;;;;;;;17.58;6.90;;;12.30;99.90;;;;;;5103670;27;20050;-78
2022/10/22 00:32:06;;;;;;;16.63;7.03;;;12.30;99.90;;;;;;5137688;27;20056;-79
2022/10/22 00:34:32;;;;;;;21.20;7.43;;;12.30;99.90;;;;;;5156379;27;20046;-81
2022/10/22 00:36:57;;;;;;;21.23;7.60;;;12.30;99.90;;;;;;5156193;27;20099;-80
2022/10/22 00:39:25;;;;;;;15.60;7.45;;;12.40;99.90;;;;;;5120468;27;20078;-77
2022/10/22 00:41:53;;;;;;;19.25;7.85;;;12.30;99.90;;;;;;5120483;27;20122;-77
2022/10/22 00:44:56;;;;;;;13.73;6.97;;;12.20;99.90;;;;;;5137103;27;20070;-78
2022/10/22 00:47:24;;;;;;;18.30;7.82;;;12.20;99.90;;;;;;5137846;27;20043;-78
2022/10/22 00:49:52;;;;;;;19.92;7.47;;;12.10;99.90;;;;;;5155319;27;20427;-78
2022/10/22 00:52:18;;;;;;;15.95;7.47;;;12.20;99.90;;;;;;5156048;27;20043;-83
2022/10/22 00:54:44;;;;;;;16.77;7.63;;;12.20;99.90;;;;;;5155401;27;20047;-76
2022/10/22 00:57:10;;;;;;;16.58;7.53;;;12.20;99.90;;;;;;5156175;27;20122;-77
2022/10/22 00:59:36;;;;;;;17.13;7.75;;;12.20;99.90;;;;;;5156100;27;20381;-81
2022/10/22 01:02:03;;;;;;;16.77;7.82;;;12.20;99.90;;;;;;5155144;27;20164;-77
2022/10/22 01:04:29;;;;;;;16.23;8.23;;;12.20;99.90;;;;;;5155342;27;20171;-78
2022/10/22 01:06:54;;;;;;;18.20;8.32;;;12.20;99.90;;;;;;5137403;27;20079;-77
2022/10/22 01:09:26;;;;;;;17.45;8.20;;;12.30;99.90;;;;;;5137255;27;20047;-82
2022/10/22 01:12:03;;;;;;;16.85;8.60;;;12.20;99.90;;;;;;5119876;27;20053;-78
2022/10/22 01:14:48;;;;;;;23.33;8.15;;;12.30;99.90;;;;;;5155184;27;20038;-76
2022/10/22 01:17:35;;;;;;;18.00;8.43;;;12.20;99.90;;;;;;5136882;27;20047;-78
2022/10/22 01:20:39;;;;;;;21.88;9.23;;;12.20;99.90;;;;;;5155794;27;20047;-78
2022/10/22 01:23:31;;;;;;;20.05;9.18;;;12.20;99.90;;;;;;5154895;27;20085;-80
2022/10/22 01:26:25;;;;;;;23.27;9.38;;;12.10;99.90;;;;;;5136892;27;20125;-79
2022/10/22 01:28:56;;;;;;;19.95;9.63;;;12.10;99.90;;;;;;5119787;27;20042;-78
2022/10/22 01:31:24;;;;;;;23.23;9.30;;;12.00;99.90;;;;;;5154896;27;20075;-86
2022/10/22 01:33:53;;;;;;;20.92;9.45;;;12.00;99.90;;;;;;5156132;27;20416;-81
2022/10/22 01:36:20;;;;;;;21.98;8.60;;;12.00;99.90;;;;;;5155460;27;20049;-78
2022/10/22 01:38:48;;;;;;;24.13;9.32;;;12.00;99.90;;;;;;5154984;27;20039;-78
2022/10/22 01:41:14;;;;;;;22.50;9.15;;;12.00;99.90;;;;;;5137112;27;20046;-79
2022/10/22 01:43:40;;;;;;;20.27;9.07;;;12.00;99.90;;;;;;5155110;27;20049;-79
2022/10/22 01:46:06;;;;;;;21.33;9.18;;;12.00;99.90;;;;;;5136730;27;20129;-78
2022/10/22 01:48:57;;;;;;;22.50;9.03;;;12.00;99.90;;;;;;5136237;27;20125;-79
2022/10/22 01:52:07;;;;;;;19.77;8.55;;;12.00;99.90;;;;;;5155425;27;20294;-81
2022/10/22 01:55:01;;;;;;;18.05;8.27;;;12.10;99.90;;;;;;5033631;28;20048;-78
2022/10/22 01:57:42;;;;;;;18.65;8.57;;;12.10;99.90;;;;;;5135893;27;20111;-78
2022/10/22 02:00:16;;;;;;;20.67;8.98;;;12.10;99.90;;;;;;5154955;27;20378;-80
2022/10/22 02:03:01;;;;;;;19.80;9.10;;;12.00;99.90;;;;;;5154702;27;20046;-80
2022/10/22 02:05:42;;;;;;;21.83;8.93;;;12.00;99.90;;;;;;5135933;27;20121;-81
2022/10/22 02:08:09;;;;;;;24.17;9.77;;;12.00;99.90;;;;;;5154865;27;20054;-77
2022/10/22 02:10:40;;;;;;;22.00;9.75;;;12.00;99.90;;;;;;5136114;27;20053;-78
2022/10/22 02:13:15;;;;;;;23.02;9.10;;;12.00;99.90;;;;;;5118460;27;20059;-76
2022/10/22 02:15:44;;;;;;;20.45;8.95;;;12.10;99.90;;;;;;5135710;27;20117;-79
2022/10/22 02:18:11;;;;;;;16.98;9.15;;;12.10;99.90;;;;;;5154617;27;20057;-76
2022/10/22 02:20:41;;;;;;;31.23;9.93;;;12.10;99.90;;;;;;5153853;27;20455;-80
2022/10/22 02:23:08;;;;;;;20.20;9.32;;;12.10;99.90;;;;;;5154680;27;20380;-78
2022/10/22 02:25:37;;;;;;;19.30;8.63;;;12.20;99.90;;;;;;5154695;27;20085;-79
2022/10/22 02:28:18;;;;;;;18.05;8.70;;;12.20;99.90;;;;;;5135811;27;20047;-78
2022/10/22 02:30:50;;;;;;;17.55;9.32;;;12.20;99.90;;;;;;5135457;27;20055;-77
2022/10/22 02:33:29;;;;;;;23.08;9.25;;;12.10;99.90;;;;;;5119581;27;20085;-79
2022/10/22 02:35:57;;;;;;;19.98;9.98;;;12.00;99.90;;;;;;5154230;27;20050;-79
2022/10/22 02:38:24;;;;;;;21.50;10.10;;;11.90;99.90;;;;;;5154263;27;20320;-78
2022/10/22 02:40:50;;;;;;;23.63;10.88;;;11.90;99.90;;;;;;5154468;27;20098;-80
2022/10/22 02:43:17;;;;;;;23.42;10.20;;;11.80;99.90;;;;;;5135688;27;20388;-78
2022/10/22 02:45:43;;;;;;;22.70;10.43;;;11.80;99.90;;;;;;5118739;27;20051;-78
2022/10/22 02:48:09;;;;;;;25.77;10.18;;;11.80;99.90;;;;;;5136404;27;20209;-78
2022/10/22 02:50:35;;;;;;;27.88;11.18;;;11.70;99.90;;;;;;5101603;27;20239;-78
2022/10/22 02:53:01;;;;;;;20.23;9.88;;;11.70;99.90;;;;;;5153979;27;20131;-78
2022/10/22 02:55:26;;;;;;;18.90;9.80;;;11.70;99.90;;;;;;5101756;27;20149;-78
2022/10/22 02:57:52;;;;;;;20.48;10.88;;;11.70;99.90;;;;;;5153831;27;20113;-77
2022/10/22 03:00:18;;;;;;;30.65;11.32;;;11.70;99.90;;;;;;5154121;27;20110;-78
2022/10/22 03:02:44;;;;;;;24.52;10.35;;;11.70;99.90;;;;;;5135146;27;20035;-78
2022/10/22 03:05:09;;;;;;;26.55;11.65;;;11.60;99.90;;;;;;5153758;27;20046;-78
2022/10/22 03:07:35;;;;;;;26.85;10.30;;;11.70;99.90;;;;;;5135250;27;20046;-78
2022/10/22 03:10:01;;;;;;;21.70;11.60;;;11.70;99.90;;;;;;5153691;27;20046;-78
2022/10/22 03:12:26;;;;;;;25.33;11.73;;;11.70;99.90;;;;;;5135496;27;20042;-79
2022/10/22 03:14:52;;;;;;;23.65;11.90;;;11.70;99.90;;;;;;5139173;27;20105;-77
2022/10/22 03:17:18;;;;;;;24.17;11.60;;;11.70;99.90;;;;;;5139046;27;20411;-78
2022/10/22 03:19:44;;;;;;;24.48;11.75;;;11.70;99.90;;;;;;5157532;27;20050;-79
2022/10/22 03:22:16;;;;;;;22.95;11.68;;;11.70;99.90;;;;;;5139345;27;20134;-78
2022/10/22 03:24:45;;;;;;;22.50;11.63;;;11.70;99.90;;;;;;5121844;27;20059;-78
2022/10/22 03:27:13;;;;;;;26.85;12.55;;;11.70;99.90;;;;;;5158473;27;20066;-79
2022/10/22 03:29:40;;;;;;;27.33;12.05;;;11.70;99.90;;;;;;5138725;27;20046;-79
2022/10/22 03:32:06;;;;;;;23.10;11.23;;;11.70;99.90;;;;;;5157392;27;20062;-80
2022/10/22 03:34:32;;;;;;;29.67;12.18;;;11.70;99.90;;;;;;5121437;27;20039;-78
2022/10/22 03:37:00;;;;;;;25.58;12.40;;;11.70;99.90;;;;;;5138802;27;20050;-79
2022/10/22 03:39:31;;;;;;;29.85;10.95;;;11.70;99.90;;;;;;5157351;27;20127;-79
2022/10/22 03:41:57;;;;;;;25.35;11.70;;;11.70;99.90;;;;;;5121576;27;20078;-79
2022/10/22 03:44:23;;;;;;;27.40;11.95;;;11.70;99.90;;;;;;5157159;27;20101;-80
2022/10/22 03:46:49;;;;;;;25.40;11.77;;;11.70;99.90;;;;;;5157699;27;20134;-80
2022/10/22 03:49:15;;;;;;;25.80;11.73;;;11.70;99.90;;;;;;5157096;27;20130;-79
2022/10/22 03:51:40;;;;;;;28.85;11.60;;;11.80;99.90;;;;;;5121484;27;20095;-80
2022/10/22 03:54:06;;;;;;;26.20;11.82;;;11.80;99.90;;;;;;5138792;27;20560;-77
2022/10/22 03:56:32;;;;;;;25.10;12.60;;;11.70;99.90;;;;;;5138937;27;20042;-78
2022/10/22 03:58:59;;;;;;;27.60;11.40;;;11.80;99.90;;;;;;5156705;27;20482;-78
2022/10/22 04:01:26;;;;;;;;;;;11.70;99.90;;;;;;5121510;27;20053;-79
2022/10/22 04:03:52;;;;;;;28.52;12.07;;;11.70;99.90;;;;;;5157098;27;19923;-78
2022/10/22 04:06:18;;;;;;;24.42;11.98;;;11.70;99.90;;;;;;5157369;27;20053;-80
2022/10/22 04:08:44;;;;;;;26.92;11.88;;;11.70;99.90;;;;;;5138428;27;20355;-79
2022/10/22 04:11:11;;;;;;;25.13;11.70;;;11.60;99.90;;;;;;5156312;27;20483;-78
2022/10/22 04:13:37;;;;;;;25.92;11.23;;;11.60;99.90;;;;;;5156563;27;20363;-81
2022/10/22 04:16:08;;;;;;;25.58;12.40;;;11.60;99.90;;;;;;5156423;27;20175;-79
2022/10/22 04:18:34;;;;;;;24.95;12.45;;;11.60;99.90;;;;;;5138303;27;20050;-79
2022/10/22 04:21:00;;;;;;;26.50;11.98;;;11.60;99.90;;;;;;5156409;27;20051;-77
2022/10/22 04:23:26;;;;;;;29.15;12.90;;;11.60;99.90;;;;;;5136991;27;20397;-80
2022/10/22 04:25:58;;;;;;;29.02;12.80;;;11.60;99.90;;;;;;5103478;27;20077;-78
2022/10/22 04:28:23;;;;;;;25.17;11.73;;;11.60;99.90;;;;;;5137860;27;20054;-78
2022/10/22 04:30:49;;;;;;;28.52;11.80;;;11.50;99.90;;;;;;5155992;27;20046;-79
2022/10/22 04:33:15;;;;;;;30.70;12.60;;;11.60;99.90;;;;;;5137487;27;20069;-81
2022/10/22 04:35:40;;;;;;;30.08;12.55;;;11.60;99.90;;;;;;5120528;27;20264;-78
2022/10/22 04:38:06;;;;;;;28.10;12.20;;;11.60;99.90;;;;;;5137574;27;20125;-77
2022/10/22 04:40:32;;;;;;;26.27;11.80;;;11.50;99.90;;;;;;5155615;27;20095;-79
2022/10/22 04:43:04;;;;;;;30.75;12.30;;;11.50;99.90;;;;;;5156547;27;20035;-79
2022/10/22 04:45:31;;;;;;;29.33;12.32;;;11.60;99.90;;;;;;5119999;27;20074;-77
2022/10/22 04:47:57;;;;;;;26.67;12.60;;;11.50;99.90;;;;;;5103745;27;20070;-85
2022/10/22 04:50:23;;;;;;;27.75;12.35;;;11.50;99.90;;;;;;5137297;27;20039;-78
2022/10/22 04:52:48;;;;;;;26.80;11.63;;;11.50;99.90;;;;;;5137087;27;20070;-77
2022/10/22 04:55:14;;;;;;;31.98;12.55;;;11.60;99.90;;;;;;5137153;27;20050;-78
2022/10/22 04:57:40;;;;;;;29.30;12.23;;;11.60;99.90;;;;;;5120040;27;20089;-78
2022/10/22 05:00:06;;;;;;;32.25;11.80;;;11.60;99.90;;;;;;5119769;27;20092;-78
2022/10/22 05:02:32;;;;;;;26.60;11.65;;;11.60;99.90;;;;;;5137027;27;20039;-79
2022/10/22 05:04:57;;;;;;;27.13;11.45;;;11.60;99.90;;;;;;5155448;27;20177;-79
2022/10/22 05:07:24;;;;;;;34.85;12.75;;;11.70;99.90;;;;;;5155343;27;20038;-78
2022/10/22 05:09:49;;;;;;;26.67;12.20;;;11.70;99.90;;;;;;5155393;27;20122;-79
2022/10/22 05:12:15;;;;;;;27.85;12.00;;;11.70;99.90;;;;;;5155913;27;20465;-79
2022/10/22 05:14:41;;;;;;;30.23;12.23;;;11.60;99.90;;;;;;5136617;27;20082;-79
2022/10/22 05:17:06;;;;;;;30.20;12.32;;;11.60;99.90;;;;;;5154973;27;20089;-80
2022/10/22 05:19:32;;;;;;;27.23;11.95;;;11.60;99.90;;;;;;5156066;27;20046;-80
2022/10/22 05:22:00;;;;;;;29.02;11.70;;;11.60;99.90;;;;;;5136658;27;20450;-81
2022/10/22 05:24:27;;;;;;;28.83;11.95;;;11.70;99.90;;;;;;5136226;27;20455;-79
2022/10/22 05:26:54;;;;;;;29.73;11.80;;;11.70;99.90;;;;;;5155181;27;20065;-80
2022/10/22 05:29:21;;;;;;;26.15;11.52;;;11.60;99.90;;;;;;5119734;27;20367;-77
2022/10/22 05:31:47;;;;;;;26.10;11.93;;;11.70;99.90;;;;;;5154708;27;20455;-78
2022/10/22 05:34:13;;;;;;;30.33;11.52;;;11.60;99.90;;;;;;5155893;27;20054;-79
2022/10/22 05:36:39;;;;;;;36.38;11.35;;;11.60;99.90;;;;;;5135794;27;20049;-79
2022/10/22 05:39:05;;;;;;;30.02;11.65;;;11.60;99.90;;;;;;5156227;27;20046;-78
2022/10/22 05:41:34;;;;;;;29.55;11.38;;;11.70;99.90;;;;;;5155442;27;20046;-78
2022/10/22 05:44:00;;;;;;;28.63;12.35;;;11.70;99.90;;;;;;5136822;27;20046;-77
2022/10/22 05:46:28;;;;;;;28.27;11.60;;;11.70;99.90;;;;;;5155173;27;20142;-79
2022/10/22 05:49:01;;;;;;;26.58;10.48;;;11.70;99.90;;;;;;5119000;27;20470;-79
2022/10/22 05:51:29;;;;;;;28.75;10.55;;;11.80;99.90;;;;;;5155066;27;20401;-82
2022/10/22 05:54:00;;;;;;;28.13;11.32;;;11.80;99.90;;;;;;5154935;27;20039;-78
2022/10/22 05:56:28;;;;;;;28.75;11.75;;;11.80;99.90;;;;;;5135987;27;20051;-79
2022/10/22 05:58:53;;;;;;;25.35;10.70;;;11.80;99.90;;;;;;5154941;27;20122;-80
2022/10/22 06:01:26;;;;;;;28.67;11.13;;;11.70;99.90;;;;;;5136726;27;20530;-80
2022/10/22 06:03:55;;;;;;;26.45;10.98;;;11.80;99.90;;;;;;5119681;27;20070;-78
2022/10/22 06:06:32;;;;;;;28.13;11.05;;;11.80;99.90;;;;;;5136255;27;20035;-79
2022/10/22 06:09:13;;;;;;;23.88;10.70;;;11.80;99.90;;;;;;5154844;27;20038;-83
2022/10/22 06:11:39;;;;;;;25.42;10.85;;;11.80;99.90;;;;;;5155373;27;20054;-79
2022/10/22 06:14:05;;;;;;;23.90;10.60;;;11.80;99.90;;;;;;5155742;27;20446;-78
2022/10/22 06:16:31;;;;;;;29.70;11.05;;;11.80;99.90;;;;;;5136077;27;20130;-79
2022/10/22 06:19:00;;;;;;;23.17;10.80;;;11.90;99.90;;;;;;5155184;27;20035;-78
2022/10/22 06:21:27;;;;;;;26.77;10.75;;;11.90;99.90;;;;;;5136465;27;20081;-78
2022/10/22 06:23:56;;;;;;;26.87;10.77;;;11.90;99.90;;;;;;5154677;27;20085;-82
2022/10/22 06:26:22;;;;;;;26.35;10.07;;;12.00;99.90;;;;;;5154768;27;20681;-78
2022/10/22 06:28:47;;;;;;;25.83;10.05;;;11.90;99.90;;;;;;5154514;27;20398;-81
2022/10/22 06:31:13;;;;;;;23.75;9.77;;;12.00;99.90;;;;;;5135560;27;20050;-77
2022/10/22 06:33:42;;;;;;;26.55;10.25;;;12.00;99.90;;;;;;5135733;27;20042;-78
2022/10/22 06:36:11;;;;;;;29.38;9.80;;;12.00;99.90;;;;;;5118933;27;20478;-77
2022/10/22 06:38:37;;;;;;;21.35;9.15;;;12.00;99.90;;;;;;5118793;27;20343;-78
2022/10/22 06:41:05;;;;;;;22.95;9.15;;;12.00;99.90;;;;;;5135381;27;20042;-79
2022/10/22 06:43:31;;;;;;;18.95;9.18;;;12.10;99.90;;;;;;5135395;27;20074;-80
2022/10/22 06:46:01;;;;;;;18.92;9.25;;;12.10;99.90;;;;;;5153819;27;20558;-78
2022/10/22 06:48:27;;;;;;;22.75;9.13;;;12.10;99.90;;;;;;5139144;27;20096;-79
2022/10/22 06:50:53;;;;;;;23.73;8.48;;;12.20;99.90;;;;;;5158495;27;20050;-80
2022/10/22 06:53:18;;;;;;;20.90;8.98;;;12.20;99.90;;;;;;5158807;27;20521;-80
2022/10/22 06:55:44;;;;;;;24.13;9.00;;;12.20;99.90;;;;;;5158457;27;20043;-78
2022/10/22 06:58:10;;;;;;;22.30;9.27;;;12.30;99.90;;;;;;5157915;27;20126;-82
2022/10/22 07:00:36;;;;;;;21.58;8.07;;;12.30;99.90;;;;;;5139506;27;20371;-79
2022/10/22 07:03:01;;;;;;;21.15;9.32;;;12.30;99.90;;;;;;5158402;27;20498;-79
2022/10/22 07:05:27;;;;;;;21.15;8.48;;;12.40;99.90;;;;;;5122390;27;20046;-79
2022/10/22 07:07:53;;;;;;;19.65;8.02;;;12.40;99.90;;;;;;5158772;27;20042;-79
2022/10/22 07:10:18;;;;;;;18.73;8.20;;;12.50;99.90;;;;;;5139223;27;20057;-77
2022/10/22 07:12:47;;;;;;;19.65;8.30;;;12.60;99.90;;;;;;5158140;27;20074;-78
2022/10/22 07:15:13;;;;;;;20.23;7.55;;;12.60;99.90;;;;;;5139313;27;20042;-82
2022/10/22 07:17:39;;;;;;;23.40;7.43;;;12.60;99.90;;;;;;5158112;27;20039;-80
2022/10/22 07:20:05;;;;;;;18.98;7.55;;;12.70;99.90;;;;;;5122093;27;20039;-81
2022/10/22 07:22:31;;;;;;;20.13;7.28;;;12.80;99.90;;;;;;5139151;27;20121;-79
2022/10/22 07:24:57;;;;;;;23.00;7.43;;;12.90;99.90;;;;;;5157621;27;20074;-80
2022/10/22 07:27:23;;;;;;;23.10;7.40;;;12.90;99.90;;;;;;5138767;27;20133;-78
2022/10/22 07:29:48;;;;;;;17.92;6.53;;;13.00;99.90;;;;;;5157870;27;20157;-78
2022/10/22 07:32:14;;;;;;;23.35;7.25;;;13.00;99.90;;;;;;5157342;27;20484;-78
2022/10/22 07:34:40;;;;;;;19.17;6.63;;;13.10;99.90;;;;;;5138754;27;20045;-78
2022/10/22 07:37:05;;;;;;;16.65;6.45;;;13.10;99.90;;;;;;5138635;27;20091;-77
2022/10/22 07:39:31;;;;;;;17.10;6.32;;;13.10;99.90;;;;;;5138676;27;20034;-78
2022/10/22 07:41:57;;;;;;;17.80;5.88;;;13.00;99.90;;;;;;5121774;27;20379;-78
2022/10/22 07:44:22;;;;;;;16.80;5.22;;;13.00;99.90;;;;;;5121701;27;20042;-79
2022/10/22 07:46:48;;;;;;;18.92;6.00;;;13.10;99.90;;;;;;5122505;27;20042;-78
2022/10/22 07:49:14;;;;;;;18.02;5.82;;;13.10;99.90;;;;;;5139614;27;20042;-80
2022/10/22 07:51:39;;;;;;;17.83;6.13;;;13.10;99.90;;;;;;5122099;27;20042;-78
2022/10/22 07:54:05;;;;;;;17.98;6.22;;;13.10;99.90;;;;;;5138737;27;20478;-78
2022/10/22 07:56:31;;;;;;;18.83;5.93;;;13.10;99.90;;;;;;5121090;27;20536;-77
2022/10/22 07:58:56;;;;;;;18.17;5.65;;;13.10;99.90;;;;;;5155908;27;20049;-76
2022/10/22 08:01:22;;;;;;;12.57;5.20;;;13.10;99.90;;;;;;5138240;27;20053;-79
2022/10/22 08:03:48;;;;;;;18.88;5.85;;;13.10;99.90;;;;;;5156894;27;20050;-79
2022/10/22 08:06:14;;;;;;;19.98;5.55;;;13.10;99.90;;;;;;5137991;27;20387;-79
2022/10/22 08:08:44;;;;;;;17.95;6.40;;;13.10;99.90;;;;;;5121280;27;20107;-77
2022/10/22 08:11:10;;;;;;;17.15;6.07;;;13.20;99.90;;;;;;5138249;27;20095;-81
2022/10/22 08:13:36;;;;;;;20.05;6.68;;;13.20;99.90;;;;;;5138704;27;20103;-80
2022/10/22 08:16:02;;;;;;;20.83;5.82;;;13.20;99.90;;;;;;5138008;27;20046;-80
2022/10/22 08:18:28;;;;;;;17.08;6.30;;;13.20;99.90;;;;;;5120556;27;20093;-80
2022/10/22 08:20:54;;;;;;;20.10;6.47;;;13.30;99.90;;;;;;5087462;27;20046;-80
2022/10/22 08:23:20;;;;;;;14.70;6.35;;;13.30;99.90;;;;;;5156181;27;20045;-81
2022/10/22 08:25:46;;;;;;;18.43;6.87;;;13.30;99.90;;;;;;5121589;27;20379;-82
2022/10/22 08:28:15;;;;;;;17.50;6.80;;;13.40;99.90;;;;;;5157270;27;20109;-81
2022/10/22 08:30:41;;;;;;;12.85;5.20;;;13.50;99.90;;;;;;5156251;27;20075;-79
2022/10/22 08:33:07;;;;;;;17.40;5.53;;;13.60;99.90;;;;;;5121072;27;20043;-78
2022/10/22 08:35:33;;;;;;;17.67;5.78;;;13.70;99.90;;;;;;5104464;27;20294;-78
2022/10/22 08:37:58;;;;;;;16.60;5.55;;;13.80;99.90;;;;;;5156419;27;20138;-80
2022/10/22 08:40:38;;;;;;;14.20;4.63;;;13.90;99.90;;;;;;5137906;27;20047;-80
2022/10/22 08:43:31;;;;;;;16.17;4.97;;;14.00;99.90;;;;;;5138070;27;20074;-75
2022/10/22 08:46:09;;;;;;;17.58;4.97;;;14.10;99.90;;;;;;5156455;27;20382;-79
2022/10/22 08:48:54;;;;;;;16.08;5.00;;;14.10;99.90;;;;;;5138217;27;20038;-78
2022/10/22 08:51:34;;;;;;;13.63;4.80;;;14.20;99.90;;;;;;5156776;27;20427;-77
2022/10/22 08:54:25;;;;;;;21.60;5.00;;;14.20;99.90;;;;;;5120398;27;20047;-80
2022/10/22 08:57:14;;;;;;;15.48;3.83;;;14.30;99.90;;;;;;5156663;27;20405;-79
2022/10/22 08:59:47;;;;;;;17.90;4.40;;;14.40;99.90;;;;;;5124161;27;20439;-76
2022/10/22 09:02:55;;;;;;;17.08;4.85;;;14.50;99.90;;;;;;5138480;27;20420;-75
2022/10/22 09:05:40;;;;;;;13.48;3.53;;;14.60;99.90;;;;;;5124800;27;20437;-77
2022/10/22 09:08:11;;;;;;;13.13;4.22;;;14.80;99.90;;;;;;5156215;27;20412;-78
2022/10/22 09:10:41;;;;;;;13.32;4.22;;;14.90;99.90;;;;;;5156098;27;20514;-77
2022/10/22 09:13:13;;;;;;;16.65;4.10;;;15.00;99.90;;;;;;5137646;27;20050;-77
2022/10/22 09:15:39;;;;;;;16.02;3.72;;;15.00;99.90;;;;;;5138123;27;20121;-76
2022/10/22 09:18:29;;;;;;;19.05;3.45;;;15.20;99.90;;;;;;5155841;27;20438;-76
2022/10/22 09:21:18;;;;;;;12.88;3.40;;;15.30;99.90;;;;;;5156139;27;20453;-76
2022/10/22 09:24:03;;;;;;;15.00;3.35;;;15.40;99.90;;;;;;5120745;27;20055;-78
2022/10/22 09:26:32;;;;;;;15.63;3.53;;;15.50;99.90;;;;;;5156433;27;20054;-78
2022/10/22 09:28:59;;;;;;;11.15;3.45;;;15.50;99.90;;;;;;5155752;27;20071;-80
2022/10/22 09:31:26;;;;;;;13.57;3.25;;;15.50;99.90;;;;;;5155657;27;20069;-75
2022/10/22 09:33:52;;;;;;;15.50;2.85;;;15.60;99.90;;;;;;5155354;27;20402;-74
2022/10/22 09:36:21;;;;;;;12.07;2.92;;;15.60;99.90;;;;;;5155431;27;20038;-75
2022/10/22 09:38:52;;;;;;;11.27;2.83;;;15.70;99.90;;;;;;5156168;27;20065;-77
2022/10/22 09:41:19;;;;;;;15.10;3.42;;;;;;;;;;5155455;27;20053;-77
2022/10/22 09:43:48;;;;;;;16.92;3.10;;;15.80;99.90;;;;;;5137021;27;20428;-76
2022/10/22 09:46:20;;;;;;;12.80;3.00;;;15.70;99.90;;;;;;5136651;27;20042;-78
2022/10/22 09:48:54;;;;;;;12.05;2.63;;;15.90;99.90;;;;;;5155379;27;20138;-76
2022/10/22 09:51:45;;;;;;;11.95;2.95;;;15.90;99.90;;;;;;5136771;27;20049;-76
2022/10/22 09:54:16;;;;;;;13.60;2.92;;;15.90;99.90;;;;;;5119808;27;20474;-73
2022/10/22 09:56:46;;;;;;;17.75;3.42;;;15.90;99.90;;;;;;5136599;27;20119;-76
2022/10/22 09:59:17;;;;;;;14.32;3.08;;;15.80;99.90;;;;;;5120000;27;20056;-72
2022/10/22 10:01:43;;;;;;;17.05;3.30;;;15.80;99.90;;;;;;5119092;27;20046;-75
2022/10/22 10:04:11;;;;;;;18.23;3.13;;;15.80;99.90;;;;;;5136340;27;20419;-74
2022/10/22 10:06:39;;;;;;;10.48;2.92;;;15.80;99.90;;;;;;5136450;27;20046;-73
2022/10/22 10:09:17;;;;;;;13.77;2.83;;;15.80;99.90;;;;;;5136002;27;20103;-74
2022/10/22 10:11:50;;;;;;;13.85;2.97;;;15.80;99.90;;;;;;5154799;27;20042;-73
2022/10/22 10:14:33;;;;;;;12.27;3.30;;;15.90;99.90;;;;;;5119551;27;20122;-73
2022/10/22 10:17:17;;;;;;;10.93;3.20;;;15.90;99.90;;;;;;5136486;27;20077;-75
2022/10/22 10:19:52;;;;;;;11.98;3.60;;;16.10;99.90;;;;;;5154660;27;20042;-73
2022/10/22 10:22:36;;;;;;;13.77;3.55;;;16.00;99.90;;;;;;5154175;27;20036;-74
2022/10/22 10:25:13;;;;;;;17.33;4.03;;;16.10;99.90;;;;;;5118818;27;20061;-73
2022/10/22 10:27:54;;;;;;;15.60;3.38;;;16.20;99.90;;;;;;5137202;27;20344;-76
2022/10/22 10:30:24;;;;;;;13.15;3.40;;;16.30;99.90;;;;;;5135997;27;20047;-72
2022/10/22 10:33:10;;;;;;;9.25;3.63;;;16.40;99.90;;;;;;5154730;27;20055;-73
2022/10/22 10:35:44;;;;;;;11.63;3.88;;;16.40;99.90;;;;;;5155081;27;20099;-73
2022/10/22 10:38:19;;;;;;;16.20;3.55;;;16.40;99.90;;;;;;5154572;27;20042;-75
2022/10/22 10:40:56;;;;;;;10.80;3.50;;;16.40;99.90;;;;;;5154475;27;20095;-72
2022/10/22 10:43:33;;;;;;;18.35;3.90;;;16.30;99.90;;;;;;5155281;27;20111;-80
2022/10/22 10:46:16;;;;;;;16.23;3.60;;;16.30;99.90;;;;;;5154955;27;20039;-73
2022/10/22 10:48:52;;;;;;;12.52;3.22;;;16.30;99.90;;;;;;5135939;27;20126;-73
2022/10/22 10:51:32;;;;;;;17.55;4.05;;;16.30;99.90;;;;;;5154377;27;20466;-73
2022/10/22 10:54:10;;;;;;;11.52;4.00;;;16.30;99.90;;;;;;5135963;27;20133;-72
2022/10/22 10:56:46;;;;;;;12.88;3.72;;;16.20;99.90;;;;;;5154783;27;20051;-73
2022/10/22 10:59:28;;;;;;;9.63;3.95;;;16.20;99.90;;;;;;5154651;27;20046;-72
2022/10/22 11:01:56;;;;;;;16.38;4.30;;;16.10;99.90;;;;;;5154081;27;20049;-73
2022/10/22 11:04:40;;;;;;;16.83;4.10;;;16.10;99.90;;;;;;5135615;27;20046;-75
2022/10/22 11:07:11;;;;;;;17.63;4.55;;;16.00;99.90;;;;;;5154040;27;20050;-73
2022/10/22 11:09:47;;;;;;;15.60;4.65;;;16.00;99.90;;;;;;5136327;27;20054;-72
2022/10/22 11:12:22;;;;;;;14.98;4.20;;;16.10;99.90;;;;;;5154607;27;20082;-73
2022/10/22 11:14:57;;;;;;;12.38;4.72;;;16.10;99.90;;;;;;5154594;27;20445;-73
2022/10/22 11:17:27;;;;;;;14.70;5.18;;;16.10;99.90;;;;;;5135406;27;20086;-75
2022/10/22 11:20:05;;;;;;;14.43;5.05;;;16.00;99.90;;;;;;5136024;27;20046;-73
2022/10/22 11:22:40;;;;;;;14.85;4.90;;;16.10;99.90;;;;;;5135415;27;20483;-73
2022/10/22 11:25:12;;;;;;;10.70;4.18;;;16.10;99.90;;;;;;5153539;27;20063;-74
2022/10/22 11:27:50;;;;;;;14.73;5.00;;;16.10;99.90;;;;;;5135821;27;20484;-76
2022/10/22 11:30:19;;;;;;;16.45;5.15;;;16.10;99.90;;;;;;5153652;27;20179;-73
2022/10/22 11:32:53;;;;;;;18.83;5.68;;;16.10;99.90;;;;;;5153836;27;20103;-74
2022/10/22 11:35:33;;;;;;;18.27;4.88;;;16.10;99.90;;;;;;5157093;27;20390;-72
2022/10/22 11:38:01;;;;;;;15.30;5.15;;;16.20;99.90;;;;;;5157930;27;20054;-72
2022/10/22 11:40:38;;;;;;;16.05;5.55;;;16.30;99.90;;;;;;5139076;27;20047;-73
2022/10/22 11:43:10;;;;;;;15.90;5.90;;;16.30;99.90;;;;;;5157707;27;20043;-72
2022/10/22 11:45:41;;;;;;;16.05;5.22;;;16.40;99.90;;;;;;5139086;27;20046;-72
2022/10/22 11:48:17;;;;;;;16.17;5.35;;;16.60;99.90;;;;;;5139438;27;20074;-73
2022/10/22 11:50:51;;;;;;;16.98;5.47;;;16.70;99.90;;;;;;5138622;27;20039;-72
2022/10/22 11:53:20;;;;;;;16.13;5.15;;;16.90;99.90;;;;;;5157987;27;20434;-73
2022/10/22 11:55:49;;;;;;;13.70;5.25;;;17.00;99.90;;;;;;5157040;27;20135;-73
2022/10/22 11:58:32;;;;;;;16.08;5.00;;;17.10;99.90;;;;;;5138676;27;20060;-73
2022/10/22 12:01:00;;;;;;;13.52;3.92;;;17.20;99.90;;;;;;5121884;27;20098;-72
2022/10/22 12:03:32;;;;;;;12.48;4.57;;;17.10;99.90;;;;;;5121567;27;20043;-73
2022/10/22 12:06:04;;;;;;;13.48;4.13;;;17.10;99.90;;;;;;5157277;27;20058;-73
2022/10/22 12:08:31;;;;;;;11.75;4.20;;;17.30;99.90;;;;;;5138702;27;20051;-73
2022/10/22 12:11:12;;;;;;;9.98;3.95;;;17.20;99.90;;;;;;5138377;27;20043;-74
2022/10/22 12:14:13;;;;;;;13.50;4.68;;;17.20;99.90;;;;;;5121498;27;20190;-74
2022/10/22 12:16:40;;;;;;;11.98;3.92;;;17.10;99.90;;;;;;5156352;27;20506;-72
2022/10/22 12:19:23;;;;;;;11.82;3.97;;;17.10;99.90;;;;;;5156660;27;20038;-72
2022/10/22 12:22:15;;;;;;;12.05;3.70;;;16.90;99.90;;;;;;5138079;27;20042;-75
2022/10/22 12:24:44;;;;;;;11.13;3.45;;;16.80;99.90;;;;;;5124219;27;20125;-74
2022/10/22 12:27:34;;;;;;;10.15;3.20;;;16.70;99.90;;;;;;5121504;27;20053;-73
2022/10/22 12:30:01;;;;;;;10.02;3.45;;;16.80;99.90;;;;;;5138173;27;20467;-73
2022/10/22 12:32:34;;;;;;;;;;;16.80;99.90;;;;;;5121657;27;20378;-73
2022/10/22 12:35:10;;;;;;;15.18;3.22;;;16.70;99.90;;;;;;5137882;27;19926;-73
2022/10/22 12:37:37;;;;;;;10.65;2.95;;;16.80;99.90;;;;;;5156424;27;20043;-73
2022/10/22 12:40:32;;;;;;;11.70;2.97;;;16.80;99.90;;;;;;5138019;27;20103;-74
2022/10/22 12:43:00;;;;;;;12.73;3.00;;;16.90;99.90;;;;;;5138587;27;20062;-72
2022/10/22 12:45:31;;;;;;;16.08;3.25;;;16.90;99.90;;;;;;5137212;27;20180;-76
2022/10/22 12:48:05;;;;;;;9.85;2.67;;;17.00;99.90;;;;;;5156343;27;20173;-73
2022/10/22 12:50:38;;;;;;;10.45;2.85;;;17.00;99.90;;;;;;5156708;27;20082;-72
2022/10/22 12:53:26;;;;;;;9.40;2.85;;;17.00;99.90;;;;;;5137791;27;20145;-74